Time;durP1;ratioP1;P1;durP2;ratioP2;P2;SDS_P1;SDS_P2;PMS_P1;PMS_P2;Temp;Humidity;BMP_temperature;BMP_pressure;BME280_temperature;BME280_humidity;BME280_pressure;Samples;Min_cycle;Max_cycle;Signal;HPM_P1;HPM_P2
2022/05/28 00:01:47;;;;;;;;;10.67;8.67;;;;;;;;5077919;27;45300;-75
2022/05/28 00:04:15;;;;;;;;;12.00;7.67;;;;;;;;5078134;27;45332;-75
2022/05/28 00:06:40;;;;;;;;;10.67;6.33;;;;;;;;5077476;27;47286;-75
2022/05/28 00:09:05;;;;;;;;;9.33;8.67;;;;;;;;5076316;27;45408;-75
2022/05/28 00:11:33;;;;;;;;;9.00;7.33;;;;;;;;5077821;28;45319;-76
2022/05/28 00:13:58;;;;;;;;;10.00;8.00;;;;;;;;5077768;27;45228;-76
2022/05/28 00:16:26;;;;;;;;;11.67;8.33;;;;;;;;5077531;27;46829;-76
2022/05/28 00:18:54;;;;;;;;;12.33;9.33;;;;;;;;5077644;27;45252;-77
2022/05/28 00:21:29;;;;;;;;;15.33;10.33;;;;;;;;5077418;27;45317;-76
2022/05/28 00:23:54;;;;;;;;;15.00;10.00;;;;;;;;5077512;27;45364;-76
2022/05/28 00:26:20;;;;;;;;;9.33;8.00;;;;;;;;5077467;27;46288;-76
2022/05/28 00:28:45;;;;;;;;;12.67;9.33;;;;;;;;5077463;27;45327;-76
2022/05/28 00:31:14;;;;;;;;;15.67;9.33;;;;;;;;5077441;27;45359;-76
2022/05/28 00:33:42;;;;;;;;;7.33;7.33;;;;;;;;5077771;27;45450;-76
2022/05/28 00:36:09;;;;;;;;;15.00;7.67;;;;;;;;5077185;27;46433;-77
2022/05/28 00:38:34;;;;;;;;;10.00;10.00;;;;;;;;5079370;27;45335;-76
2022/05/28 00:41:02;;;;;;;;;13.67;8.33;;;;;;;;5080980;27;45378;-77
2022/05/28 00:43:28;;;;;;;;;11.67;9.67;;;;;;;;5081070;27;45233;-77
2022/05/28 00:46:13;;;;;;;;;9.00;6.67;;;;;;;;5080707;27;46463;-77
2022/05/28 00:48:44;;;;;;;;;10.00;9.67;;;;;;;;5080641;27;45142;-77
2022/05/28 00:51:11;;;;;;;;;10.33;9.00;;;;;;;;5080984;27;45311;-77
2022/05/28 00:53:36;;;;;;;;;11.00;10.00;;;;;;;;5081265;27;45404;-76
2022/05/28 00:56:03;;;;;;;;;17.00;12.67;;;;;;;;5080367;27;45413;-76
2022/05/28 00:58:29;;;;;;;;;14.00;11.67;;;;;;;;5080712;27;45377;-77
2022/05/28 01:00:54;;;;;;;;;14.67;11.33;;;;;;;;5080675;27;45461;-77
2022/05/28 01:03:26;;;;;;;;;17.00;15.00;;;;;;;;5080977;27;45467;-77
2022/05/28 01:06:00;;;;;;;;;10.67;10.33;;;;;;;;5080693;27;45704;-77
2022/05/28 01:08:40;;;;;;;;;21.67;18.00;;;;;;;;5080509;27;45328;-77
2022/05/28 01:11:19;;;;;;;;;11.00;10.00;;;;;;;;5080353;27;45384;-77
2022/05/28 01:13:44;;;;;;;;;11.00;10.00;;;;;;;;5080654;27;45651;-76
2022/05/28 01:16:10;;;;;;;;;12.00;10.00;;;;;;;;5080330;28;46352;-77
2022/05/28 01:18:39;;;;;;;;;14.33;11.67;;;;;;;;5080338;28;45333;-76
2022/05/28 01:21:10;;;;;;;;;15.00;12.67;;;;;;;;5080218;27;45284;-77
2022/05/28 01:23:51;;;;;;;;;14.67;9.33;;;;;;;;5079267;28;45463;-76
2022/05/28 01:26:34;;;;;;;;;12.67;10.33;;;;;;;;5080422;27;46710;-76
2022/05/28 01:29:03;;;;;;;;;11.67;11.00;;;;;;;;5080526;28;45250;-76
2022/05/28 01:31:30;;;;;;;;;18.67;13.33;;;;;;;;5080318;27;45544;-76
2022/05/28 01:33:56;;;;;;;;;19.00;16.33;;;;;;;;5080390;28;45367;-77
2022/05/28 01:36:22;;;;;;;;;14.33;12.33;;;;;;;;5080188;27;46045;-76
2022/05/28 01:38:48;;;;;;;;;15.00;13.67;;;;;;;;5080077;27;45264;-76
2022/05/28 01:41:14;;;;;;;;;16.67;10.67;;;;;;;;5080208;27;45165;-76
2022/05/28 01:43:41;;;;;;;;;17.00;12.00;;;;;;;;5080172;27;45766;-76
2022/05/28 01:46:07;;;;;;;;;14.67;10.67;;;;;;;;5079643;27;46265;-77
2022/05/28 01:48:32;;;;;;;;;17.67;12.33;;;;;;;;5079933;27;45426;-76
2022/05/28 01:51:00;;;;;;;;;14.67;12.67;;;;;;;;5080162;27;45374;-76
2022/05/28 01:56:10;;;;;;;;;13.33;11.67;;;;;;;;5079593;28;45342;-76
2022/05/28 01:58:35;;;;;;;;;15.00;12.33;;;;;;;;5079742;27;45304;-77
2022/05/28 02:01:02;;;;;;;;;11.67;10.67;;;;;;;;5079950;27;45326;-76
2022/05/28 02:03:31;;;;;;;;;15.67;10.67;;;;;;;;5080330;27;45223;-77
2022/05/28 02:05:56;;;;;;;;;18.00;12.00;;;;;;;;5079551;27;46765;-77
2022/05/28 02:08:22;;;;;;;;;16.00;11.67;;;;;;;;5079616;27;45296;-77
2022/05/28 02:10:51;;;;;;;;;12.33;10.33;;;;;;;;5079612;28;45356;-76
2022/05/28 02:13:34;;;;;;;;;9.67;9.67;;;;;;;;5080037;27;45429;-76
2022/05/28 02:16:06;;;;;;;;;11.00;10.00;;;;;;;;5079484;27;46443;-76
2022/05/28 02:18:36;;;;;;;;;11.00;9.67;;;;;;;;5079726;28;45162;-77
2022/05/28 02:21:21;;;;;;;;;11.33;10.33;;;;;;;;5079494;27;45411;-77
2022/05/28 02:23:50;;;;;;;;;12.00;10.00;;;;;;;;5078695;28;45409;-77
2022/05/28 02:26:30;;;;;;;;;13.33;8.67;;;;;;;;5079031;27;45293;-77
2022/05/28 02:28:56;;;;;;;;;11.33;9.67;;;;;;;;5079436;28;45489;-77
2022/05/28 02:31:24;;;;;;;;;13.00;11.67;;;;;;;;5079314;27;45425;-76
2022/05/28 02:33:50;;;;;;;;;10.00;8.00;;;;;;;;5079373;27;45429;-77
2022/05/28 02:36:16;;;;;;;;;13.00;9.00;;;;;;;;5079250;27;45943;-77
2022/05/28 02:38:41;;;;;;;;;11.33;10.67;;;;;;;;5079289;27;45266;-77
2022/05/28 02:41:06;;;;;;;;;12.67;11.00;;;;;;;;5079559;27;45210;-76
2022/05/28 02:43:32;;;;;;;;;10.00;7.00;;;;;;;;5079434;27;45485;-77
2022/05/28 02:46:01;;;;;;;;;9.00;8.33;;;;;;;;5078889;27;46435;-76
2022/05/28 02:48:26;;;;;;;;;8.33;6.67;;;;;;;;5079153;27;45302;-76
2022/05/28 02:50:51;;;;;;;;;10.33;8.00;;;;;;;;5078953;27;45302;-77
2022/05/28 02:53:16;;;;;;;;;11.67;8.00;;;;;;;;5079400;27;45362;-77
2022/05/28 02:55:42;;;;;;;;;10.00;8.33;;;;;;;;5078580;27;46457;-76
2022/05/28 02:58:07;;;;;;;;;11.00;8.00;;;;;;;;5079104;27;45360;-77
2022/05/28 03:00:32;;;;;;;;;9.67;7.00;;;;;;;;5078583;27;45434;-76
2022/05/28 03:02:57;;;;;;;;;8.67;5.33;;;;;;;;5079374;28;45533;-78
2022/05/28 03:05:24;;;;;;;;;5.00;5.00;;;;;;;;5079031;27;45518;-77
2022/05/28 03:07:49;;;;;;;;;7.00;5.33;;;;;;;;5078743;27;45254;-77
2022/05/28 03:10:15;;;;;;;;;7.00;5.00;;;;;;;;5078820;27;45246;-77
2022/05/28 03:12:40;;;;;;;;;4.00;4.00;;;;;;;;5078978;27;45279;-77
2022/05/28 03:15:06;;;;;;;;;5.00;5.00;;;;;;;;5078548;27;45280;-77
2022/05/28 03:17:31;;;;;;;;;5.00;5.00;;;;;;;;5078861;27;45210;-77
2022/05/28 03:19:59;;;;;;;;;5.33;5.00;;;;;;;;5078792;27;45256;-77
2022/05/28 03:22:24;;;;;;;;;4.00;3.33;;;;;;;;5078875;27;45402;-77
2022/05/28 03:24:49;;;;;;;;;6.00;4.67;;;;;;;;5078536;27;46353;-77
2022/05/28 03:27:15;;;;;;;;;3.00;3.00;;;;;;;;5078363;28;45386;-77
2022/05/28 03:29:40;;;;;;;;;4.33;4.33;;;;;;;;5078756;27;45371;-77
2022/05/28 03:32:05;;;;;;;;;5.00;3.67;;;;;;;;5078620;27;45324;-77
2022/05/28 03:34:31;;;;;;;;;3.00;3.00;;;;;;;;5078185;27;46675;-77
2022/05/28 03:36:56;;;;;;;;;4.00;4.00;;;;;;;;5078546;27;45280;-78
2022/05/28 03:39:21;;;;;;;;;7.67;2.67;;;;;;;;5078197;27;45371;-77
2022/05/28 03:41:47;;;;;;;;;3.67;2.67;;;;;;;;5078479;27;45367;-77
2022/05/28 03:44:12;;;;;;;;;4.33;4.00;;;;;;;;5078099;28;46159;-77
2022/05/28 03:46:38;;;;;;;;;5.67;5.67;;;;;;;;5076970;28;45426;-77
2022/05/28 03:49:10;;;;;;;;;2.00;2.00;;;;;;;;5078607;27;45422;-77
2022/05/28 03:51:35;;;;;;;;;6.33;3.33;;;;;;;;5078328;27;45739;-77
2022/05/28 03:54:02;;;;;;;;;3.33;3.00;;;;;;;;5077900;28;46121;-77
2022/05/28 03:56:29;;;;;;;;;5.00;3.33;;;;;;;;5077679;27;45348;-77
2022/05/28 03:58:54;;;;;;;;;3.33;3.33;;;;;;;;5077974;27;45247;-77
2022/05/28 04:01:20;;;;;;;;;4.67;4.00;;;;;;;;5078268;27;45280;-77
2022/05/28 04:03:45;;;;;;;;;6.00;3.00;;;;;;;;5077607;27;46219;-77
2022/05/28 04:06:11;;;;;;;;;5.00;3.00;;;;;;;;5078034;27;45748;-77
2022/05/28 04:08:36;;;;;;;;;5.00;3.33;;;;;;;;5078156;27;45472;-76
2022/05/28 04:11:01;;;;;;;;;4.00;3.00;;;;;;;;5077919;27;45325;-76
2022/05/28 04:13:27;;;;;;;;;5.00;3.00;;;;;;;;5076933;28;46479;-77
2022/05/28 04:15:52;;;;;;;;;2.33;2.33;;;;;;;;5077811;27;45212;-77
2022/05/28 04:18:18;;;;;;;;;3.67;2.00;;;;;;;;5077952;27;45451;-78
2022/05/28 04:20:43;;;;;;;;;2.00;1.00;;;;;;;;5077941;27;45308;-78
2022/05/28 04:23:09;;;;;;;;;5.00;3.00;;;;;;;;5077314;27;46416;-78
2022/05/28 04:25:34;;;;;;;;;2.75;1.50;;;;;;;;5077691;28;45327;-78
2022/05/28 04:27:59;;;;;;;;;5.00;3.00;;;;;;;;5077619;28;45324;-78
2022/05/28 04:30:24;;;;;;;;;1.67;1.67;;;;;;;;5077945;27;45414;-78
2022/05/28 04:32:50;;;;;;;;;2.67;2.33;;;;;;;;5077643;27;45418;-78
2022/05/28 04:35:15;;;;;;;;;3.00;2.00;;;;;;;;5077483;27;45766;-78
2022/05/28 04:37:41;;;;;;;;;2.67;2.00;;;;;;;;5077712;27;45339;-78
2022/05/28 04:40:07;;;;;;;;;6.00;2.00;;;;;;;;5077591;27;45258;-78
2022/05/28 04:42:32;;;;;;;;;3.33;2.00;;;;;;;;5077431;28;45420;-78
2022/05/28 04:44:58;;;;;;;;;3.00;1.00;;;;;;;;5077450;27;45266;-79
2022/05/28 04:47:23;;;;;;;;;3.33;2.67;;;;;;;;5077349;27;45147;-79
2022/05/28 04:49:49;;;;;;;;;3.00;3.00;;;;;;;;5077564;27;45304;-78
2022/05/28 04:52:14;;;;;;;;;2.00;2.00;;;;;;;;5077370;28;46598;-78
2022/05/28 04:54:39;;;;;;;;;5.00;2.00;;;;;;;;5077397;27;45418;-78
2022/05/28 04:57:04;;;;;;;;;2.50;1.00;;;;;;;;5077108;27;45567;-78
2022/05/28 04:59:30;;;;;;;;;3.00;3.00;;;;;;;;5077385;28;45401;-78
2022/05/28 05:01:55;;;;;;;;;4.00;2.00;;;;;;;;5076778;27;46563;-79
2022/05/28 05:04:20;;;;;;;;;4.33;3.67;;;;;;;;5077198;27;45216;-79
2022/05/28 05:06:45;;;;;;;;;4.00;1.00;;;;;;;;5077569;27;45265;-79
2022/05/28 05:09:10;;;;;;;;;1.33;1.33;;;;;;;;5077333;27;45218;-78
2022/05/28 05:11:36;;;;;;;;;2.33;2.33;;;;;;;;5076678;27;45571;-78
2022/05/28 05:14:01;;;;;;;;;4.00;4.00;;;;;;;;5077137;27;45252;-78
2022/05/28 05:16:26;;;;;;;;;4.00;1.67;;;;;;;;5077129;28;45321;-78
2022/05/28 05:18:51;;;;;;;;;1.75;0.75;;;;;;;;5077246;27;45398;-78
2022/05/28 05:21:17;;;;;;;;;1.67;1.67;;;;;;;;5076623;27;47355;-78
2022/05/28 05:23:43;;;;;;;;;2.25;1.50;;;;;;;;5077535;28;45336;-78
2022/05/28 05:26:09;;;;;;;;;3.00;1.67;;;;;;;;5080653;27;45401;-77
2022/05/28 05:28:34;;;;;;;;;2.25;1.25;;;;;;;;5080786;28;45331;-78
2022/05/28 05:30:59;;;;;;;;;3.67;1.67;;;;;;;;5080056;27;45834;-77
2022/05/28 05:33:25;;;;;;;;;6.67;6.67;;;;;;;;5080205;27;45315;-77
2022/05/28 05:35:50;;;;;;;;;3.00;1.67;;;;;;;;5080402;28;45458;-77
2022/05/28 05:38:15;;;;;;;;;1.00;1.00;;;;;;;;5080566;27;45343;-77
2022/05/28 05:40:40;;;;;;;;;1.25;0.75;;;;;;;;5079807;28;46439;-78
2022/05/28 05:43:06;;;;;;;;;2.33;1.67;;;;;;;;5080374;27;45303;-78
2022/05/28 05:45:31;;;;;;;;;3.00;0.50;;;;;;;;5080236;27;45441;-77
2022/05/28 05:47:57;;;;;;;;;1.50;1.50;;;;;;;;5080361;27;45462;-77
2022/05/28 05:50:22;;;;;;;;;3.33;1.00;;;;;;;;5080170;27;46689;-77
2022/05/28 05:52:48;;;;;;;;;4.33;1.33;;;;;;;;5080054;27;45292;-76
2022/05/28 05:55:13;;;;;;;;;0.67;0.67;;;;;;;;5080149;27;45331;-72
2022/05/28 05:57:38;;;;;;;;;1.67;1.67;;;;;;;;5080001;27;45332;-74
2022/05/28 06:00:04;;;;;;;;;1.33;1.33;;;;;;;;5079609;28;45309;-74
2022/05/28 06:02:29;;;;;;;;;2.67;1.33;;;;;;;;5079938;27;45328;-73
2022/05/28 06:04:54;;;;;;;;;3.00;1.00;;;;;;;;5079832;27;45201;-73
2022/05/28 06:07:19;;;;;;;;;1.00;0.67;;;;;;;;5080212;27;45293;-72
2022/05/28 06:09:45;;;;;;;;;3.75;1.00;;;;;;;;5079523;27;46514;-72
2022/05/28 06:12:10;;;;;;;;;2.33;2.00;;;;;;;;5079657;27;45448;-72
2022/05/28 06:14:35;;;;;;;;;0.33;0.33;;;;;;;;5079787;27;45227;-72
2022/05/28 06:17:00;;;;;;;;;1.33;0.67;;;;;;;;5080157;27;45410;-72
2022/05/28 06:19:26;;;;;;;;;4.33;0.67;;;;;;;;5079520;27;46460;-73
2022/05/28 06:21:51;;;;;;;;;2.33;1.00;;;;;;;;5079527;27;45319;-72
2022/05/28 06:24:16;;;;;;;;;3.33;0.67;;;;;;;;5079532;28;45348;-75
2022/05/28 06:26:41;;;;;;;;;3.33;1.33;;;;;;;;5078449;28;45528;-75
2022/05/28 06:29:07;;;;;;;;;1.67;0.67;;;;;;;;5079523;27;46541;-76
2022/05/28 06:31:32;;;;;;;;;3.50;1.00;;;;;;;;5079498;28;45407;-75
2022/05/28 06:33:57;;;;;;;;;2.00;2.00;;;;;;;;5079460;28;45219;-75
2022/05/28 06:36:22;;;;;;;;;1.25;1.00;;;;;;;;5078908;28;45251;-76
2022/05/28 06:38:48;;;;;;;;;1.00;1.00;;;;;;;;5079071;28;45496;-73
2022/05/28 06:41:13;;;;;;;;;3.00;1.00;;;;;;;;5077606;28;45324;-73
2022/05/28 06:43:38;;;;;;;;;2.00;2.00;;;;;;;;5079548;27;45386;-73
2022/05/28 06:46:05;;;;;;;;;2.00;0.25;;;;;;;;5079338;27;45367;-75
2022/05/28 06:48:30;;;;;;;;;1.00;1.00;;;;;;;;5079133;27;45696;-74
2022/05/28 06:51:02;;;;;;;;;1.67;1.67;;;;;;;;5078896;28;45396;-73
2022/05/28 06:53:31;;;;;;;;;1.50;1.00;;;;;;;;5079163;27;45339;-73
2022/05/28 06:55:57;;;;;;;;;1.50;1.00;;;;;;;;5078872;27;45417;-74
2022/05/28 06:58:22;;;;;;;;;3.00;2.67;;;;;;;;5077147;28;47521;-73
2022/05/28 07:00:47;;;;;;;;;2.00;1.00;;;;;;;;5078621;27;45638;-73
2022/05/28 07:03:14;;;;;;;;;2.33;1.00;;;;;;;;5079166;27;45416;-74
2022/05/28 07:05:39;;;;;;;;;3.75;2.75;;;;;;;;5079396;27;45391;-73
2022/05/28 07:08:04;;;;;;;;;0.75;0.75;;;;;;;;5078707;27;45305;-72
2022/05/28 07:10:30;;;;;;;;;5.33;2.33;;;;;;;;5078841;27;45190;-73
2022/05/28 07:12:55;;;;;;;;;2.00;2.00;;;;;;;;5078741;27;45430;-73
2022/05/28 07:15:20;;;;;;;;;3.00;1.00;;;;;;;;5078288;28;45284;-73
2022/05/28 07:17:45;;;;;;;;;1.50;1.00;;;;;;;;5077911;27;45434;-72
2022/05/28 07:20:11;;;;;;;;;5.33;4.00;;;;;;;;5078572;28;45320;-72
2022/05/28 07:22:36;;;;;;;;;5.50;1.00;;;;;;;;5078712;27;45362;-72
2022/05/28 07:25:02;;;;;;;;;3.00;3.00;;;;;;;;5078911;27;45323;-72
2022/05/28 07:27:27;;;;;;;;;3.00;1.67;;;;;;;;5077253;27;45402;-74
2022/05/28 07:29:54;;;;;;;;;0.33;0.33;;;;;;;;5078426;27;45343;-75
2022/05/28 07:32:19;;;;;;;;;3.33;2.00;;;;;;;;5078522;27;45362;-76
2022/05/28 07:34:44;;;;;;;;;4.00;1.00;;;;;;;;5078592;27;45306;-75
2022/05/28 07:37:10;;;;;;;;;2.00;2.00;;;;;;;;5078354;27;46208;-80
2022/05/28 07:39:35;;;;;;;;;2.00;1.00;;;;;;;;5078028;27;45382;-75
2022/05/28 07:42:02;;;;;;;;;0.00;0.00;;;;;;;;5077911;28;45518;-75
2022/05/28 07:44:27;;;;;;;;;1.00;1.00;;;;;;;;5078504;27;45433;-75
2022/05/28 07:46:52;;;;;;;;;2.00;1.67;;;;;;;;5077730;28;46343;-75
2022/05/28 07:49:18;;;;;;;;;3.00;2.67;;;;;;;;5077962;27;45473;-75
2022/05/28 07:51:43;;;;;;;;;6.00;6.00;;;;;;;;5078021;27;45412;-75
2022/05/28 07:54:09;;;;;;;;;9.00;6.33;;;;;;;;5078307;27;45370;-74
2022/05/28 07:56:34;;;;;;;;;0.00;0.00;;;;;;;;5077745;27;45586;-75
2022/05/28 07:58:59;;;;;;;;;2.67;2.67;;;;;;;;5077943;27;45201;-75
2022/05/28 08:01:29;;;;;;;;;1.00;1.00;;;;;;;;5077975;27;45233;-75
2022/05/28 08:03:55;;;;;;;;;2.75;1.25;;;;;;;;5078308;27;45378;-75
2022/05/28 08:06:20;;;;;;;;;2.00;2.00;;;;;;;;5077536;27;47245;-75
2022/05/28 08:08:46;;;;;;;;;2.33;2.00;;;;;;;;5076928;28;45398;-75
2022/05/28 08:11:12;;;;;;;;;2.33;2.33;;;;;;;;5077801;27;45336;-74
2022/05/28 08:13:37;;;;;;;;;3.00;3.00;;;;;;;;5077433;27;45466;-75
2022/05/28 08:16:03;;;;;;;;;5.00;2.00;;;;;;;;5077602;28;46374;-74
2022/05/28 08:18:29;;;;;;;;;3.33;2.00;;;;;;;;5077384;27;45423;-74
2022/05/28 08:23:40;;;;;;;;;13.00;12.67;;;;;;;;5077633;28;45362;-74
2022/05/28 08:26:06;;;;;;;;;3.67;1.33;;;;;;;;5077371;27;46050;-74
2022/05/28 08:28:31;;;;;;;;;2.00;1.00;;;;;;;;5077523;27;45271;-75
2022/05/28 08:30:56;;;;;;;;;6.00;4.00;;;;;;;;5077558;27;45195;-75
2022/05/28 08:33:21;;;;;;;;;3.33;1.67;;;;;;;;5077821;27;45259;-75
2022/05/28 08:35:48;;;;;;;;;2.00;2.00;;;;;;;;5077517;27;45728;-75
2022/05/28 08:38:14;;;;;;;;;2.67;2.67;;;;;;;;5077350;27;45286;-74
2022/05/28 08:41:06;;;;;;;;;1.00;1.00;;;;;;;;5077353;27;45656;-75
2022/05/28 08:43:33;;;;;;;;;2.00;1.00;;;;;;;;5014815;28;45286;-76
2022/05/28 08:45:59;;;;;;;;;1.67;1.00;;;;;;;;5014454;28;46294;-73
2022/05/28 08:48:31;;;;;;;;;1.00;1.00;;;;;;;;5014639;28;45465;-73
2022/05/28 08:51:00;;;;;;;;;2.00;1.00;;;;;;;;5015060;28;45445;-72
2022/05/28 08:53:28;;;;;;;;;2.00;2.00;;;;;;;;5015125;28;45416;-73
2022/05/28 08:55:53;;;;;;;;;1.00;1.00;;;;;;;;5014676;28;46005;-75
2022/05/28 08:58:21;;;;;;;;;2.00;1.00;;;;;;;;5014767;28;45314;-76
2022/05/28 09:00:55;;;;;;;;;1.00;1.00;;;;;;;;5018317;28;45499;-75
2022/05/28 09:03:23;;;;;;;;;2.67;2.67;;;;;;;;5018358;28;45294;-75
2022/05/28 09:06:06;;;;;;;;;2.00;2.00;;;;;;;;5018137;28;47170;-75
2022/05/28 09:08:34;;;;;;;;;2.00;1.00;;;;;;;;5018056;28;45338;-76
2022/05/28 09:11:02;;;;;;;;;3.67;0.00;;;;;;;;5018131;28;45442;-75
2022/05/28 09:13:32;;;;;;;;;6.67;2.00;;;;;;;;5018244;28;45433;-76
2022/05/28 09:15:58;;;;;;;;;3.67;1.33;;;;;;;;5018144;28;45452;-78
2022/05/28 09:18:27;;;;;;;;;2.00;2.00;;;;;;;;5017880;28;45335;-77
2022/05/28 09:20:52;;;;;;;;;2.00;2.00;;;;;;;;5063207;28;45561;-75
2022/05/28 09:23:18;;;;;;;;;3.00;3.00;;;;;;;;5080940;27;45257;-75
2022/05/28 09:25:45;;;;;;;;;3.67;3.00;;;;;;;;5080304;28;45537;-74
2022/05/28 09:28:25;;;;;;;;;6.00;4.00;;;;;;;;5080283;27;45269;-75
2022/05/28 09:30:56;;;;;;;;;4.33;3.67;;;;;;;;5080394;27;45375;-74
2022/05/28 09:33:33;;;;;;;;;3.33;3.33;;;;;;;;5080493;28;45281;-75
2022/05/28 09:36:04;;;;;;;;;2.33;2.33;;;;;;;;5080104;27;46170;-74
2022/05/28 09:38:45;;;;;;;;;4.00;3.00;;;;;;;;5080156;28;45475;-74
2022/05/28 09:41:22;;;;;;;;;4.00;3.00;;;;;;;;5080307;28;45346;-74
2022/05/28 09:44:02;;;;;;;;;2.67;2.00;;;;;;;;5080118;28;45318;-74
2022/05/28 09:46:30;;;;;;;;;2.67;2.33;;;;;;;;5079109;28;46203;-74
2022/05/28 09:49:14;;;;;;;;;1.67;1.00;;;;;;;;5079687;28;45762;-74
2022/05/28 09:51:49;;;;;;;;;1.00;1.00;;;;;;;;5079959;28;45453;-74
2022/05/28 09:54:20;;;;;;;;;1.33;1.33;;;;;;;;5080281;28;45349;-74
2022/05/28 09:57:12;;;;;;;;;2.00;1.00;;;;;;;;5079277;28;46285;-74
2022/05/28 09:59:43;;;;;;;;;1.67;1.67;;;;;;;;5039819;28;45497;-74
2022/05/28 10:02:17;;;;;;;;;0.33;0.33;;;;;;;;5057060;28;45376;-74
2022/05/28 10:05:08;;;;;;;;;2.33;1.00;;;;;;;;5057633;28;45503;-74
2022/05/28 10:07:37;;;;;;;;;0.67;0.67;;;;;;;;5057149;28;45506;-74
2022/05/28 10:10:21;;;;;;;;;0.67;0.67;;;;;;;;5056014;28;45348;-74
2022/05/28 10:12:47;;;;;;;;;0.33;0.33;;;;;;;;5057291;28;45428;-74
2022/05/28 10:15:14;;;;;;;;;4.33;3.00;;;;;;;;5057044;28;45580;-74
2022/05/28 10:17:42;;;;;;;;;1.00;0.00;;;;;;;;5057085;28;45460;-74
2022/05/28 10:20:14;;;;;;;;;1.00;0.33;;;;;;;;5056573;28;45416;-74
2022/05/28 10:22:40;;;;;;;;;4.00;0.00;;;;;;;;5057106;28;45459;-74
2022/05/28 10:25:09;;;;;;;;;2.00;0.67;;;;;;;;5057338;28;45337;-75
2022/05/28 10:27:46;;;;;;;;;0.33;0.00;;;;;;;;5056886;28;46540;-74
2022/05/28 10:30:24;;;;;;;;;0.00;0.00;;;;;;;;5056729;28;45391;-74
2022/05/28 10:32:51;;;;;;;;;0.00;0.00;;;;;;;;5056823;28;45445;-74
2022/05/28 10:35:20;;;;;;;;;10.33;8.33;;;;;;;;5057100;28;45396;-74
2022/05/28 10:37:45;;;;;;;;;1.00;0.67;;;;;;;;5078772;28;45323;-74
2022/05/28 10:40:19;;;;;;;;;1.33;0.00;;;;;;;;5079172;28;45314;-74
2022/05/28 10:42:45;;;;;;;;;0.00;0.00;;;;;;;;5079483;28;45220;-74
2022/05/28 10:45:14;;;;;;;;;1.33;0.00;;;;;;;;5079283;28;45577;-75
2022/05/28 10:47:39;;;;;;;;;0.00;0.00;;;;;;;;5079029;28;45492;-74
2022/05/28 10:50:05;;;;;;;;;6.00;2.67;;;;;;;;5079101;28;45280;-74
2022/05/28 10:52:48;;;;;;;;;0.00;0.00;;;;;;;;5079242;28;45357;-73
2022/05/28 10:55:20;;;;;;;;;0.00;0.00;;;;;;;;5079183;27;45280;-74
2022/05/28 10:58:03;;;;;;;;;1.00;0.67;;;;;;;;5078928;28;46166;-74
2022/05/28 11:00:29;;;;;;;;;0.00;0.00;;;;;;;;5078629;28;45416;-74
2022/05/28 11:03:00;;;;;;;;;0.67;0.67;;;;;;;;5079107;28;45348;-74
2022/05/28 11:05:48;;;;;;;;;0.33;0.33;;;;;;;;5079265;28;45351;-74
2022/05/28 11:08:13;;;;;;;;;0.00;0.00;;;;;;;;5078590;27;46376;-74
2022/05/28 11:10:38;;;;;;;;;0.33;0.00;;;;;;;;5078638;28;45458;-75
2022/05/28 11:13:13;;;;;;;;;1.33;1.00;;;;;;;;5078827;28;45445;-74
2022/05/28 11:15:57;;;;;;;;;3.00;0.33;;;;;;;;5078845;28;45463;-74
2022/05/28 11:18:34;;;;;;;;;1.00;1.00;;;;;;;;5078593;28;45403;-74
2022/05/28 11:21:17;;;;;;;;;2.00;0.00;;;;;;;;5078296;28;45405;-74
2022/05/28 11:23:49;;;;;;;;;2.00;0.00;;;;;;;;5078612;28;45359;-72
2022/05/28 11:26:29;;;;;;;;;0.00;0.00;;;;;;;;5077418;28;45425;-76
2022/05/28 11:29:07;;;;;;;;;0.00;0.00;;;;;;;;5077488;28;45751;-69
2022/05/28 11:31:44;;;;;;;;;3.00;1.00;;;;;;;;5078002;28;45390;-74
2022/05/28 11:34:12;;;;;;;;;0.00;0.00;;;;;;;;5078346;28;45403;-74
2022/05/28 11:36:41;;;;;;;;;2.00;1.00;;;;;;;;5078653;28;45406;-77
2022/05/28 11:39:10;;;;;;;;;2.33;2.00;;;;;;;;5077919;28;45457;-75
2022/05/28 11:41:41;;;;;;;;;2.00;1.00;;;;;;;;5077989;28;45359;-73
2022/05/28 11:44:06;;;;;;;;;1.67;1.67;;;;;;;;5077746;28;45322;-71
2022/05/28 11:46:37;;;;;;;;;2.00;2.00;;;;;;;;5078186;28;45379;-68
2022/05/28 11:52:10;;;;;;;;;1.00;1.00;;;;;;;;5077810;28;45265;-70
2022/05/28 11:54:46;;;;;;;;;1.00;0.00;;;;;;;;5078070;28;45383;-70
2022/05/28 11:57:21;;;;;;;;;3.67;0.00;;;;;;;;5098518;27;45351;-69
2022/05/28 11:59:46;;;;;;;;;1.00;1.00;;;;;;;;5097873;27;45951;-69
2022/05/28 12:02:16;;;;;;;;;0.67;0.67;;;;;;;;5098217;27;45242;-75
2022/05/28 12:04:42;;;;;;;;;1.33;0.00;;;;;;;;5098201;27;45403;-74
2022/05/28 12:07:12;;;;;;;;;1.00;0.00;;;;;;;;5098294;27;45704;-75
2022/05/28 12:09:42;;;;;;;;;0.00;0.00;;;;;;;;5098156;27;46489;-73
2022/05/28 12:12:13;;;;;;;;;0.00;0.00;;;;;;;;5098082;27;45351;-74
2022/05/28 12:14:41;;;;;;;;;0.33;0.33;;;;;;;;5098105;27;45373;-74
2022/05/28 12:17:08;;;;;;;;;0.00;0.00;;;;;;;;5098696;27;45393;-73
2022/05/28 12:19:42;;;;;;;;;0.00;0.00;;;;;;;;5097812;27;46442;-74
2022/05/28 12:22:09;;;;;;;;;1.00;0.00;;;;;;;;5098041;27;45295;-74
2022/05/28 12:24:37;;;;;;;;;2.00;0.00;;;;;;;;5079758;27;45388;-74
2022/05/28 12:29:38;;;;;;;;;0.00;0.00;;;;;;;;5097628;27;45897;-73
2022/05/28 12:32:10;;;;;;;;;1.00;1.00;;;;;;;;5097879;27;45307;-73
2022/05/28 12:34:37;;;;;;;;;1.00;1.00;;;;;;;;5097044;27;45518;-74
2022/05/28 12:37:03;;;;;;;;;1.00;0.00;;;;;;;;5080029;27;45416;-75
2022/05/28 12:39:51;;;;;;;;;2.67;0.33;;;;;;;;5097845;27;45370;-72
2022/05/28 12:42:23;;;;;;;;;0.67;0.67;;;;;;;;5031878;28;45395;-72
2022/05/28 12:44:49;;;;;;;;;1.00;1.00;;;;;;;;5034834;28;45816;-72
2022/05/28 12:47:22;;;;;;;;;0.00;0.00;;;;;;;;5001733;28;45343;-71
2022/05/28 12:50:10;;;;;;;;;0.67;0.00;;;;;;;;5034632;28;46383;-73
2022/05/28 12:52:44;;;;;;;;;0.00;0.00;;;;;;;;4975425;28;45440;-72
2022/05/28 12:55:12;;;;;;;;;0.67;0.00;;;;;;;;4975187;28;45374;-72
2022/05/28 12:57:38;;;;;;;;;3.00;2.00;;;;;;;;4975492;28;45356;-72
2022/05/28 13:00:08;;;;;;;;;1.00;1.00;;;;;;;;4974980;28;46697;-74
2022/05/28 13:02:43;;;;;;;;;1.00;0.00;;;;;;;;4975124;28;45395;-74
2022/05/28 13:05:11;;;;;;;;;3.67;2.00;;;;;;;;4975502;28;45252;-73
2022/05/28 13:07:48;;;;;;;;;1.00;1.00;;;;;;;;4975225;28;45402;-73
2022/05/28 13:10:19;;;;;;;;;9.33;9.33;;;;;;;;4974903;28;46842;-74
2022/05/28 13:13:02;;;;;;;;;0.00;0.00;;;;;;;;4975018;28;45918;-74
2022/05/28 13:15:39;;;;;;;;;0.00;0.00;;;;;;;;4975051;28;45454;-74
2022/05/28 13:18:15;;;;;;;;;1.00;0.00;;;;;;;;4975208;28;45541;-74
2022/05/28 13:20:40;;;;;;;;;1.00;1.00;;;;;;;;5000476;28;45429;-74
2022/05/28 13:23:20;;;;;;;;;0.67;0.67;;;;;;;;4993728;28;45464;-73
2022/05/28 13:26:21;;;;;;;;;0.67;0.67;;;;;;;;4992933;28;45510;-74
2022/05/28 13:28:46;;;;;;;;;1.67;0.67;;;;;;;;4921757;28;45508;-73
2022/05/28 13:31:12;;;;;;;;;0.00;0.00;;;;;;;;4972685;28;46437;-74
2022/05/28 13:33:39;;;;;;;;;0.33;0.33;;;;;;;;4973248;28;45520;-73
2022/05/28 13:36:06;;;;;;;;;1.00;1.00;;;;;;;;4972959;28;45517;-73
2022/05/28 13:38:36;;;;;;;;;0.00;0.00;;;;;;;;4973046;28;45368;-74
2022/05/28 13:41:08;;;;;;;;;0.00;0.00;;;;;;;;4972371;28;45623;-73
2022/05/28 13:43:35;;;;;;;;;0.33;0.33;;;;;;;;4956491;28;45513;-73
2022/05/28 13:46:01;;;;;;;;;2.00;2.00;;;;;;;;4975451;28;45506;-73
2022/05/28 13:48:27;;;;;;;;;0.00;0.00;;;;;;;;4974151;28;45342;-74
2022/05/28 13:50:55;;;;;;;;;1.00;0.00;;;;;;;;4975940;28;46277;-74
2022/05/28 13:53:24;;;;;;;;;0.00;0.00;;;;;;;;4976249;28;45476;-75
2022/05/28 13:55:55;;;;;;;;;0.00;0.00;;;;;;;;4973747;28;45285;-74
2022/05/28 13:58:22;;;;;;;;;0.00;0.00;;;;;;;;4976839;28;45574;-74
2022/05/28 14:00:55;;;;;;;;;0.33;0.33;;;;;;;;4959335;28;48467;-72
2022/05/28 14:03:25;;;;;;;;;5.67;5.67;;;;;;;;5051607;28;45900;-73
2022/05/28 14:05:50;;;;;;;;;0.00;0.00;;;;;;;;5077424;28;45462;-75
2022/05/28 14:08:21;;;;;;;;;0.33;0.33;;;;;;;;5060049;28;45433;-77
2022/05/28 14:10:47;;;;;;;;;0.00;0.00;;;;;;;;5075521;27;45631;-76
2022/05/28 14:13:26;;;;;;;;;0.00;0.00;;;;;;;;5077869;27;45439;-75
2022/05/28 14:15:53;;;;;;;;;0.00;0.00;;;;;;;;5075861;28;45396;-76
2022/05/28 14:18:22;;;;;;;;;0.00;0.00;;;;;;;;5077333;28;45494;-74
2022/05/28 14:20:48;;;;;;;;;2.33;1.00;;;;;;;;5075028;28;46685;-76
2022/05/28 14:23:23;;;;;;;;;0.00;0.00;;;;;;;;5077998;28;45419;-75
2022/05/28 14:25:49;;;;;;;;;2.00;0.33;;;;;;;;5075656;28;45332;-77
2022/05/28 14:28:17;;;;;;;;;0.00;0.00;;;;;;;;5078088;28;45471;-77
2022/05/28 14:30:43;;;;;;;;;0.00;0.00;;;;;;;;5077732;28;45515;-75
2022/05/28 14:33:13;;;;;;;;;2.67;0.33;;;;;;;;5077630;28;45531;-76
2022/05/28 14:35:39;;;;;;;;;1.00;0.67;;;;;;;;5077521;27;45328;-77
2022/05/28 14:38:08;;;;;;;;;0.00;0.00;;;;;;;;5078524;28;45810;-76
2022/05/28 14:40:35;;;;;;;;;0.00;0.00;;;;;;;;5077242;28;45473;-76
2022/05/28 14:43:01;;;;;;;;;0.00;0.00;;;;;;;;5077594;28;45511;-75
2022/05/28 14:45:29;;;;;;;;;1.67;1.00;;;;;;;;5059170;28;45435;-77
2022/05/28 14:47:56;;;;;;;;;0.00;0.00;;;;;;;;5077515;28;45685;-77
2022/05/28 14:50:29;;;;;;;;;1.33;0.00;;;;;;;;5079076;28;46354;-77
2022/05/28 14:52:55;;;;;;;;;2.00;2.00;;;;;;;;5078978;27;45360;-77
2022/05/28 14:55:47;;;;;;;;;1.00;0.00;;;;;;;;5078260;28;45319;-77
2022/05/28 14:58:12;;;;;;;;;1.00;0.00;;;;;;;;5074712;28;45438;-76